Time;durP1;ratioP1;P1;durP2;ratioP2;P2;SDS_P1;SDS_P2;PMS_P1;PMS_P2;Temp;Humidity;BMP_temperature;BMP_pressure;BME280_temperature;BME280_humidity;BME280_pressure;Samples;Min_cycle;Max_cycle;Signal;HPM_P1;HPM_P2
2021/11/20 00:00:18;;;;;;;12.90;9.43;;;9.30;99.90;;;;;;5056815;28;20495;-61
2021/11/20 00:02:44;;;;;;;12.90;9.47;;;9.40;99.90;;;;;;5056342;28;20282;-61
2021/11/20 00:05:13;;;;;;;15.23;10.47;;;9.40;99.90;;;;;;5055126;28;21060;-61
2021/11/20 00:07:38;;;;;;;15.13;10.23;;;9.50;99.90;;;;;;5055761;28;20450;-61
2021/11/20 00:10:09;;;;;;;18.40;10.77;;;9.30;99.90;;;;;;5057335;28;20517;-61
2021/11/20 00:12:35;;;;;;;14.20;9.83;;;9.40;99.90;;;;;;5057215;28;20203;-61
2021/11/20 00:15:03;;;;;;;15.67;9.50;;;9.50;99.90;;;;;;5054151;28;20439;-61
2021/11/20 00:17:29;;;;;;;12.40;10.50;;;9.40;99.90;;;;;;5055342;28;20808;-61
2021/11/20 00:19:55;;;;;;;21.03;10.87;;;9.50;99.90;;;;;;5056126;28;20430;-61
2021/11/20 00:22:31;;;;;;;17.37;11.43;;;9.40;99.90;;;;;;5054319;28;20444;-61
2021/11/20 00:25:00;;;;;;;14.07;10.97;;;9.30;99.90;;;;;;5053170;28;20218;-61
2021/11/20 00:27:33;;;;;;;16.30;10.63;;;9.30;99.90;;;;;;5054697;28;20496;-61
2021/11/20 00:30:12;;;;;;;16.57;12.07;;;9.40;99.90;;;;;;5053394;28;20488;-61
2021/11/20 00:32:40;;;;;;;14.80;10.07;;;9.40;99.90;;;;;;5042342;28;20542;-61
2021/11/20 00:35:09;;;;;;;16.63;11.00;;;9.30;99.90;;;;;;5053779;28;22965;-61
2021/11/20 00:37:35;;;;;;;16.97;11.33;;;9.40;99.90;;;;;;5057380;28;20434;-61
2021/11/20 00:40:04;;;;;;;15.70;10.80;;;9.50;99.90;;;;;;5052208;28;20855;-61
2021/11/20 00:42:30;;;;;;;13.40;10.60;;;9.40;99.90;;;;;;5056877;28;20572;-61
2021/11/20 00:44:56;;;;;;;13.30;10.30;;;9.60;99.90;;;;;;5054039;28;20557;-61
2021/11/20 00:47:21;;;;;;;13.60;10.17;;;9.60;99.90;;;;;;5058008;28;20866;-61
2021/11/20 00:49:50;;;;;;;16.13;10.50;;;9.40;99.90;;;;;;5051193;28;20184;-61
2021/11/20 00:52:16;;;;;;;16.50;9.07;;;9.30;99.90;;;;;;5055061;28;20199;-61
2021/11/20 00:54:42;;;;;;;13.80;10.40;;;9.30;99.90;;;;;;5054679;28;20437;-62
2021/11/20 00:57:10;;;;;;;16.70;10.57;;;9.30;99.90;;;;;;5055680;28;20563;-61
2021/11/20 00:59:36;;;;;;;15.97;11.70;;;9.20;99.90;;;;;;5056544;28;20503;-61
2021/11/20 01:02:04;;;;;;;12.90;10.03;;;9.30;99.90;;;;;;5053255;28;20453;-62
2021/11/20 01:04:31;;;;;;;15.77;9.87;;;9.40;99.90;;;;;;5054764;28;20702;-61
2021/11/20 01:06:57;;;;;;;12.17;9.80;;;9.30;99.90;;;;;;5051086;28;20429;-62
2021/11/20 01:09:28;;;;;;;14.90;10.73;;;9.20;99.90;;;;;;5056277;28;20418;-60
2021/11/20 01:12:21;;;;;;;16.57;10.50;;;9.00;99.90;;;;;;5051825;28;20512;-60
2021/11/20 01:14:49;;;;;;;15.03;10.87;;;9.00;99.90;;;;;;5055677;28;20441;-61
2021/11/20 01:17:16;;;;;;;15.20;11.47;;;9.10;99.90;;;;;;5054975;28;20437;-60
2021/11/20 01:19:42;;;;;;;12.23;10.20;;;9.00;99.90;;;;;;5056370;28;20440;-61
2021/11/20 01:22:11;;;;;;;15.67;9.90;;;9.20;99.90;;;;;;5059219;28;20815;-60
2021/11/20 01:24:37;;;;;;;11.10;8.07;;;9.20;99.90;;;;;;5052032;28;20463;-61
2021/11/20 01:27:03;;;;;;;13.00;8.97;;;9.30;99.90;;;;;;5052500;28;22932;-61
2021/11/20 01:29:29;;;;;;;9.80;7.27;;;9.30;99.90;;;;;;5054234;28;20180;-61
2021/11/20 01:31:56;;;;;;;9.30;6.63;;;9.30;99.90;;;;;;5053467;28;20212;-61
2021/11/20 01:34:23;;;;;;;9.53;6.53;;;9.40;99.90;;;;;;5036695;28;21032;-61
2021/11/20 01:36:51;;;;;;;6.30;5.07;;;9.20;99.90;;;;;;5057925;28;20492;-61
2021/11/20 01:39:25;;;;;;;7.10;5.83;;;9.20;99.90;;;;;;5053553;28;20430;-61
2021/11/20 01:41:59;;;;;;;5.77;5.17;;;9.20;99.90;;;;;;5055534;28;20889;-61
2021/11/20 01:44:41;;;;;;;7.30;5.93;;;9.30;99.90;;;;;;5055713;28;20507;-61
2021/11/20 01:47:19;;;;;;;6.10;4.93;;;9.20;99.90;;;;;;5053775;28;20430;-61
2021/11/20 01:49:53;;;;;;;7.83;4.83;;;9.30;99.90;;;;;;5052259;28;20467;-61
2021/11/20 01:52:29;;;;;;;5.93;4.80;;;9.30;99.90;;;;;;5058539;28;20445;-61
2021/11/20 01:55:13;;;;;;;6.30;4.97;;;9.30;99.90;;;;;;5054688;28;21014;-61
2021/11/20 01:58:07;;;;;;;8.70;5.43;;;9.20;99.90;;;;;;5056441;28;20444;-61
2021/11/20 02:01:18;;;;;;;8.50;5.43;;;9.20;99.90;;;;;;5055644;28;20429;-60
2021/11/20 02:04:08;;;;;;;7.17;5.27;;;9.20;99.90;;;;;;5056619;28;20789;-60
2021/11/20 02:06:45;;;;;;;8.40;6.17;;;9.30;99.90;;;;;;5053677;28;20675;-60
2021/11/20 02:09:23;;;;;;;8.17;6.80;;;9.40;99.90;;;;;;5049723;28;20429;-61
2021/11/20 02:11:54;;;;;;;8.87;6.47;;;9.40;99.90;;;;;;5052456;28;20465;-60
2021/11/20 02:14:22;;;;;;;8.87;7.00;;;9.30;99.90;;;;;;5053570;28;20867;-60
2021/11/20 02:16:51;;;;;;;8.40;6.80;;;9.40;99.90;;;;;;5052561;28;20460;-60
2021/11/20 02:19:21;;;;;;;11.33;8.00;;;9.40;99.90;;;;;;5053495;28;20996;-60
2021/11/20 02:21:55;;;;;;;9.50;7.40;;;9.30;99.90;;;;;;5054555;28;20824;-61
2021/11/20 02:24:20;;;;;;;12.53;8.50;;;9.30;99.90;;;;;;5057480;28;20435;-61
2021/11/20 02:26:45;;;;;;;14.60;8.23;;;9.30;99.90;;;;;;5054726;28;20491;-61
2021/11/20 02:29:13;;;;;;;11.03;8.90;;;9.30;99.90;;;;;;5053770;28;20694;-62
2021/11/20 02:31:51;;;;;;;13.60;9.20;;;9.30;99.90;;;;;;5054805;28;20229;-60
2021/11/20 02:34:19;;;;;;;13.90;9.90;;;9.30;99.90;;;;;;5055543;28;20522;-61
2021/11/20 02:36:45;;;;;;;21.07;12.03;;;9.30;99.90;;;;;;5053090;28;20430;-61
2021/11/20 02:39:21;;;;;;;18.13;11.80;;;9.20;99.90;;;;;;5057216;28;21108;-61
2021/11/20 02:41:50;;;;;;;14.97;11.90;;;9.30;99.90;;;;;;5054910;28;20453;-61
2021/11/20 02:44:18;;;;;;;18.03;12.40;;;9.30;99.90;;;;;;5057684;28;20444;-61
2021/11/20 02:46:48;;;;;;;16.80;13.40;;;9.40;99.90;;;;;;5057666;28;20474;-61
2021/11/20 02:49:15;;;;;;;17.23;12.73;;;9.40;99.90;;;;;;5056523;28;20476;-60
2021/11/20 02:51:44;;;;;;;16.53;12.20;;;9.30;99.90;;;;;;5055304;28;20481;-61
2021/11/20 02:54:17;;;;;;;19.20;14.20;;;9.30;99.90;;;;;;5058186;28;20427;-61
2021/11/20 02:56:50;;;;;;;24.87;12.40;;;9.30;99.90;;;;;;5040824;28;20941;-61
2021/11/20 02:59:16;;;;;;;17.70;12.60;;;9.30;99.90;;;;;;5056392;28;20432;-61
2021/11/20 03:01:44;;;;;;;17.80;12.10;;;9.40;99.90;;;;;;5055176;28;20794;-61
2021/11/20 03:04:12;;;;;;;20.07;14.33;;;9.30;99.90;;;;;;5057331;28;20486;-61
2021/11/20 03:06:38;;;;;;;20.53;14.77;;;9.20;99.90;;;;;;5056831;28;20539;-61
2021/11/20 03:09:06;;;;;;;18.63;13.00;;;9.10;99.90;;;;;;5057311;28;20469;-62
2021/11/20 03:11:33;;;;;;;21.50;14.47;;;9.30;99.90;;;;;;5055623;28;20238;-62
2021/11/20 03:14:05;;;;;;;18.37;13.90;;;9.40;99.90;;;;;;5056716;28;20433;-62
2021/11/20 03:16:39;;;;;;;18.77;13.90;;;9.30;99.90;;;;;;5054431;28;20865;-61
2021/11/20 03:19:05;;;;;;;23.10;15.07;;;9.40;99.90;;;;;;5058526;28;20444;-61
2021/11/20 03:21:34;;;;;;;23.80;14.47;;;9.40;99.90;;;;;;5056948;28;20456;-61
2021/11/20 03:24:03;;;;;;;20.07;15.43;;;9.30;99.90;;;;;;5060471;28;20191;-61
2021/11/20 03:26:29;;;;;;;20.50;14.33;;;9.30;99.90;;;;;;5058523;28;20472;-61
2021/11/20 03:28:54;;;;;;;23.60;16.07;;;9.30;99.90;;;;;;5059916;28;20437;-61
2021/11/20 03:31:20;;;;;;;22.07;14.03;;;9.20;99.90;;;;;;5054265;28;20210;-61
2021/11/20 03:33:47;;;;;;;21.80;13.93;;;9.20;99.90;;;;;;5055483;28;20194;-61
2021/11/20 03:36:14;;;;;;;20.27;13.97;;;9.40;99.90;;;;;;5058097;28;20459;-64
2021/11/20 03:38:40;;;;;;;23.50;15.30;;;9.50;99.90;;;;;;5056427;28;20445;-61
2021/11/20 03:41:07;;;;;;;19.87;14.17;;;9.40;99.90;;;;;;5055137;28;20555;-61
2021/11/20 03:43:33;;;;;;;23.67;14.50;;;9.50;99.90;;;;;;5055751;28;21077;-61
2021/11/20 03:45:59;;;;;;;18.60;13.00;;;9.40;99.90;;;;;;5053720;28;20472;-59
2021/11/20 03:48:25;;;;;;;23.67;14.87;;;9.40;99.90;;;;;;5057855;28;20430;-61
2021/11/20 03:50:51;;;;;;;17.20;12.30;;;9.40;99.90;;;;;;5052926;28;21101;-60
2021/11/20 03:53:17;;;;;;;19.93;14.50;;;9.30;99.90;;;;;;5054564;28;20183;-60
2021/11/20 03:55:45;;;;;;;21.87;15.00;;;9.40;99.90;;;;;;5057492;28;20197;-61
2021/11/20 03:58:12;;;;;;;22.37;14.43;;;9.20;99.90;;;;;;5056611;28;20300;-61
2021/11/20 04:01:12;;;;;;;22.20;14.70;;;9.20;99.90;;;;;;5055691;28;20597;-61
2021/11/20 04:03:42;;;;;;;19.47;12.87;;;9.30;99.90;;;;;;5036523;28;20454;-61
2021/11/20 04:06:12;;;;;;;20.23;12.07;;;9.40;99.90;;;;;;5054565;28;20547;-62
2021/11/20 04:08:40;;;;;;;21.93;14.40;;;9.50;99.90;;;;;;5058047;28;20430;-62
2021/11/20 04:11:06;;;;;;;19.70;13.73;;;9.30;99.90;;;;;;5053287;28;20446;-61
2021/11/20 04:13:33;;;;;;;21.20;13.67;;;9.40;99.90;;;;;;5059033;28;20441;-61
2021/11/20 04:15:59;;;;;;;19.67;12.10;;;9.30;99.90;;;;;;5054431;28;20442;-62
2021/11/20 04:18:24;;;;;;;17.27;12.53;;;9.30;99.90;;;;;;5054752;28;22101;-62
2021/11/20 04:20:50;;;;;;;19.77;11.60;;;9.30;99.90;;;;;;5055033;28;20191;-62
2021/11/20 04:23:16;;;;;;;18.63;13.13;;;9.20;99.90;;;;;;5058798;28;20191;-61
2021/11/20 04:25:42;;;;;;;21.00;13.87;;;9.00;99.90;;;;;;5052312;28;20210;-62
2021/11/20 04:28:08;;;;;;;18.47;13.50;;;9.20;99.90;;;;;;5057146;28;20187;-61
2021/11/20 04:30:37;;;;;;;17.33;11.63;;;9.40;99.90;;;;;;5056461;28;20418;-62
2021/11/20 04:33:03;;;;;;;21.13;12.63;;;9.60;99.90;;;;;;5055678;28;20211;-61
2021/11/20 04:35:29;;;;;;;18.17;12.93;;;9.30;99.90;;;;;;5055302;28;20430;-62
2021/11/20 04:37:55;;;;;;;16.67;11.97;;;9.40;99.90;;;;;;5057693;28;20930;-61
2021/11/20 04:40:22;;;;;;;17.77;11.57;;;9.20;99.90;;;;;;5054637;28;20226;-61
2021/11/20 04:42:47;;;;;;;19.43;12.80;;;9.10;99.90;;;;;;5054541;28;20475;-61
2021/11/20 04:45:19;;;;;;;18.53;12.53;;;9.10;99.90;;;;;;5057255;28;20453;-60
2021/11/20 04:47:45;;;;;;;17.60;11.10;;;9.10;99.90;;;;;;5059828;28;20198;-61
2021/11/20 04:50:11;;;;;;;19.17;12.67;;;9.10;99.90;;;;;;5054063;28;20507;-61
2021/11/20 04:52:38;;;;;;;18.87;12.70;;;9.10;99.90;;;;;;5058112;28;20449;-61
2021/11/20 04:55:05;;;;;;;21.00;11.67;;;9.20;99.90;;;;;;5056581;28;20573;-61
2021/11/20 04:57:31;;;;;;;15.40;12.20;;;9.30;99.90;;;;;;5056024;28;20479;-61
2021/11/20 04:59:56;;;;;;;16.83;11.33;;;9.00;99.90;;;;;;5057592;28;20434;-62
2021/11/20 05:02:22;;;;;;;20.43;14.40;;;9.00;99.90;;;;;;5053601;28;20953;-62
2021/11/20 05:04:48;;;;;;;16.10;11.40;;;9.00;99.90;;;;;;5055404;28;20294;-62
2021/11/20 05:07:14;;;;;;;20.13;12.20;;;9.00;99.90;;;;;;5057492;28;20210;-62
2021/11/20 05:09:40;;;;;;;18.73;12.27;;;9.10;99.90;;;;;;5052642;28;20233;-62
2021/11/20 05:12:07;;;;;;;21.10;13.00;;;9.10;99.90;;;;;;5038704;28;20480;-62
2021/11/20 05:14:35;;;;;;;15.87;12.80;;;9.20;99.90;;;;;;5054280;28;20274;-61
2021/11/20 05:17:01;;;;;;;17.27;11.83;;;9.10;99.90;;;;;;5039443;28;20439;-62
2021/11/20 05:19:27;;;;;;;19.80;13.60;;;9.10;99.90;;;;;;5053235;28;20441;-62
2021/11/20 05:21:52;;;;;;;16.53;10.83;;;9.20;99.90;;;;;;5054783;28;21075;-62
2021/11/20 05:24:18;;;;;;;19.67;11.70;;;9.30;99.90;;;;;;5053442;28;20194;-62
2021/11/20 05:26:43;;;;;;;19.17;12.57;;;9.30;99.90;;;;;;5052987;28;20188;-62
2021/11/20 05:29:22;;;;;;;19.50;13.30;;;9.20;99.90;;;;;;5051583;28;20195;-62
2021/11/20 05:31:48;;;;;;;19.50;12.70;;;9.40;99.90;;;;;;5051911;28;20268;-62
2021/11/20 05:34:14;;;;;;;18.73;13.10;;;9.20;99.90;;;;;;5054433;28;20465;-61
2021/11/20 05:36:40;;;;;;;20.20;14.10;;;9.10;99.90;;;;;;5051965;28;20520;-62
2021/11/20 05:39:06;;;;;;;18.60;13.33;;;9.20;99.90;;;;;;5054291;28;20187;-62
2021/11/20 05:41:33;;;;;;;16.93;12.90;;;9.10;99.90;;;;;;5055057;28;20226;-62
2021/11/20 05:43:59;;;;;;;19.80;13.13;;;8.80;99.90;;;;;;5054313;28;20434;-61
2021/11/20 05:46:27;;;;;;;19.00;12.90;;;8.80;99.90;;;;;;5055178;28;20478;-61
2021/11/20 05:48:53;;;;;;;16.33;12.00;;;8.80;99.90;;;;;;5054538;28;21533;-61
2021/11/20 05:51:19;;;;;;;19.17;12.80;;;8.60;99.90;;;;;;5055820;28;20931;-61
2021/11/20 05:53:45;;;;;;;17.23;12.77;;;8.80;99.90;;;;;;5053752;28;20438;-61
2021/11/20 05:56:11;;;;;;;17.90;12.80;;;8.90;99.90;;;;;;5055895;28;20441;-61
2021/11/20 05:58:37;;;;;;;20.07;14.80;;;8.80;99.90;;;;;;5054556;28;20449;-61
2021/11/20 06:01:07;;;;;;;21.03;12.47;;;8.50;99.90;;;;;;5037472;28;20433;-61
2021/11/20 06:03:34;;;;;;;22.00;13.70;;;8.60;99.90;;;;;;5053559;28;20188;-61
2021/11/20 06:06:00;;;;;;;19.53;12.93;;;8.70;99.90;;;;;;5052653;28;21005;-61
2021/11/20 06:08:26;;;;;;;21.53;12.43;;;8.80;99.90;;;;;;5057734;28;20513;-60
2021/11/20 06:10:55;;;;;;;16.90;11.83;;;8.80;99.90;;;;;;5052456;28;20521;-60
2021/11/20 06:13:21;;;;;;;16.83;11.30;;;8.60;99.90;;;;;;5053044;28;20259;-60
2021/11/20 06:15:47;;;;;;;18.40;12.40;;;8.60;99.90;;;;;;5053772;28;20898;-61
2021/11/20 06:18:13;;;;;;;16.00;11.33;;;8.60;99.90;;;;;;5053146;28;20485;-61
2021/11/20 06:20:41;;;;;;;17.27;11.53;;;8.50;99.90;;;;;;5052883;28;20194;-61
2021/11/20 06:23:07;;;;;;;15.00;11.17;;;8.50;99.90;;;;;;5053413;28;20203;-61
2021/11/20 06:25:33;;;;;;;18.23;11.00;;;8.40;99.90;;;;;;5055768;28;20490;-61
2021/11/20 06:27:59;;;;;;;15.00;11.13;;;8.40;99.90;;;;;;5053413;28;20977;-61
2021/11/20 06:30:26;;;;;;;20.10;11.60;;;8.30;99.90;;;;;;5056484;28;20232;-61
2021/11/20 06:32:52;;;;;;;18.67;13.30;;;8.30;99.90;;;;;;5036401;28;20238;-61
2021/11/20 06:35:21;;;;;;;18.87;11.20;;;8.30;99.90;;;;;;5050056;28;20438;-62
2021/11/20 06:37:48;;;;;;;20.50;11.50;;;8.20;99.90;;;;;;5050726;28;20434;-60
2021/11/20 06:40:41;;;;;;;16.87;10.77;;;8.20;99.90;;;;;;5052760;28;20472;-61
2021/11/20 06:43:11;;;;;;;16.77;11.40;;;8.20;99.90;;;;;;5050493;28;20457;-60
2021/11/20 06:45:39;;;;;;;18.33;12.03;;;8.20;99.90;;;;;;5051298;28;21014;-61
2021/11/20 06:48:06;;;;;;;12.97;10.13;;;8.00;99.90;;;;;;5053788;28;20430;-61
2021/11/20 06:50:34;;;;;;;16.53;11.37;;;8.00;99.90;;;;;;5053848;28;20441;-61
2021/11/20 06:53:03;;;;;;;17.73;12.50;;;8.20;99.90;;;;;;5052465;28;20450;-62
2021/11/20 06:55:30;;;;;;;15.03;11.30;;;8.00;99.90;;;;;;5053507;28;20486;-62
2021/11/20 06:58:19;;;;;;;17.77;12.47;;;8.00;99.90;;;;;;5054030;28;20815;-61
2021/11/20 07:00:53;;;;;;;15.30;11.20;;;7.80;99.90;;;;;;5053782;28;20479;-61
2021/11/20 07:03:34;;;;;;;23.27;13.93;;;7.90;99.90;;;;;;5050380;28;20434;-61
2021/11/20 07:06:21;;;;;;;20.57;12.90;;;8.00;99.90;;;;;;5049923;28;20524;-61
2021/11/20 07:08:50;;;;;;;21.23;12.50;;;8.20;99.90;;;;;;5050221;28;20429;-62
2021/11/20 07:11:16;;;;;;;23.10;12.50;;;8.30;99.90;;;;;;5054732;28;20476;-62
2021/11/20 07:13:42;;;;;;;19.10;13.23;;;8.10;99.90;;;;;;5054500;28;20544;-61
2021/11/20 07:16:11;;;;;;;20.00;12.93;;;8.20;99.90;;;;;;5051480;28;20448;-60
2021/11/20 07:18:37;;;;;;;22.77;14.07;;;8.10;99.90;;;;;;5053557;28;20805;-60
2021/11/20 07:21:03;;;;;;;26.10;15.07;;;8.00;99.90;;;;;;5049891;28;20438;-60
2021/11/20 07:23:29;;;;;;;23.03;14.83;;;8.10;99.90;;;;;;5037835;28;20977;-61
2021/11/20 07:25:56;;;;;;;25.20;15.83;;;8.00;99.90;;;;;;5052838;28;20493;-61
2021/11/20 07:28:22;;;;;;;27.37;15.30;;;7.90;99.90;;;;;;5053728;28;20434;-61
2021/11/20 07:30:48;;;;;;;26.87;14.20;;;7.90;99.90;;;;;;5055180;28;20950;-62
2021/11/20 07:33:14;;;;;;;25.83;15.10;;;7.70;99.90;;;;;;5055561;28;20187;-62
2021/11/20 07:35:53;;;;;;;21.77;13.87;;;7.50;99.90;;;;;;5058507;28;20193;-61
2021/11/20 07:38:24;;;;;;;24.80;14.53;;;7.60;99.90;;;;;;5055524;28;20634;-61
2021/11/20 07:40:50;;;;;;;29.10;15.63;;;7.80;99.90;;;;;;5056797;28;20446;-61
2021/11/20 07:43:16;;;;;;;24.90;14.57;;;7.50;99.90;;;;;;5058311;28;20445;-61
2021/11/20 07:45:42;;;;;;;25.87;15.10;;;7.60;99.90;;;;;;5057688;28;20458;-61
2021/11/20 07:48:14;;;;;;;24.80;14.83;;;7.90;99.90;;;;;;5057259;28;20179;-61
2021/11/20 07:50:41;;;;;;;29.00;15.77;;;7.80;99.90;;;;;;5057161;28;20429;-61
2021/11/20 07:53:07;;;;;;;27.13;15.50;;;7.60;99.90;;;;;;5054076;28;20706;-61
2021/11/20 07:55:33;;;;;;;26.03;14.63;;;7.70;99.90;;;;;;5055399;28;20460;-61
2021/11/20 07:57:59;;;;;;;21.90;13.60;;;7.90;99.90;;;;;;5055005;28;20444;-61
2021/11/20 08:00:27;;;;;;;26.60;14.93;;;8.10;99.90;;;;;;5056740;28;20270;-61
2021/11/20 08:02:53;;;;;;;24.63;13.70;;;8.10;99.90;;;;;;5053467;28;20669;-61
2021/11/20 08:05:19;;;;;;;24.93;12.73;;;8.00;99.90;;;;;;5051578;28;20470;-61
2021/11/20 08:07:45;;;;;;;19.20;12.87;;;8.10;99.90;;;;;;5054350;28;20191;-61
2021/11/20 08:10:15;;;;;;;21.60;12.93;;;8.00;99.90;;;;;;5057876;28;20810;-61
2021/11/20 08:12:42;;;;;;;19.20;12.07;;;8.10;99.90;;;;;;5053623;28;20450;-61
2021/11/20 08:15:10;;;;;;;22.23;13.13;;;8.10;99.90;;;;;;5054340;28;20499;-60
2021/11/20 08:17:36;;;;;;;19.87;12.40;;;8.10;99.90;;;;;;5056104;28;20786;-61
2021/11/20 08:20:07;;;;;;;20.27;13.53;;;7.70;99.90;;;;;;5053082;28;20495;-62
2021/11/20 08:22:33;;;;;;;21.93;13.40;;;7.90;99.90;;;;;;5056108;28;20620;-61
2021/11/20 08:24:59;;;;;;;24.10;15.20;;;8.10;99.90;;;;;;5056623;28;20466;-60
2021/11/20 08:27:24;;;;;;;20.23;14.10;;;8.00;99.90;;;;;;5057670;28;20641;-60
2021/11/20 08:29:50;;;;;;;17.43;12.80;;;8.20;99.90;;;;;;5053712;28;20224;-60
2021/11/20 08:32:16;;;;;;;21.17;14.90;;;8.00;99.90;;;;;;5054588;28;20218;-61
2021/11/20 08:34:42;;;;;;;18.53;13.47;;;8.00;99.90;;;;;;5056728;28;20183;-61
2021/11/20 08:37:09;;;;;;;20.60;13.53;;;8.00;99.90;;;;;;5053590;28;20194;-61
2021/11/20 08:39:35;;;;;;;21.13;14.53;;;7.80;99.90;;;;;;5054244;28;20619;-61
2021/11/20 08:42:01;;;;;;;21.10;14.50;;;7.90;99.90;;;;;;5056545;28;20491;-61
2021/11/20 08:44:26;;;;;;;20.83;14.13;;;8.10;99.90;;;;;;5052992;28;20959;-63
2021/11/20 08:46:53;;;;;;;21.33;15.67;;;8.20;99.90;;;;;;5054528;28;20446;-61
2021/11/20 08:49:19;;;;;;;23.27;14.30;;;8.20;99.90;;;;;;5057856;28;20183;-61
2021/11/20 08:51:47;;;;;;;19.67;14.13;;;8.50;99.90;;;;;;5054550;28;20452;-61
2021/11/20 08:54:13;;;;;;;20.17;14.30;;;8.40;99.90;;;;;;5057311;28;20438;-62
2021/11/20 08:56:43;;;;;;;21.27;14.70;;;8.60;99.90;;;;;;5055866;28;20822;-61
2021/11/20 08:59:15;;;;;;;19.03;13.57;;;8.70;99.90;;;;;;5055252;28;20176;-61
2021/11/20 09:01:45;;;;;;;18.37;13.10;;;8.80;99.90;;;;;;5053291;28;20502;-61
2021/11/20 09:04:16;;;;;;;18.83;12.83;;;9.10;99.90;;;;;;5054361;28;20434;-61
2021/11/20 09:07:06;;;;;;;19.20;13.83;;;9.20;99.90;;;;;;5052949;28;20469;-61
2021/11/20 09:09:43;;;;;;;19.63;14.30;;;9.30;99.90;;;;;;5057491;28;20446;-61
2021/11/20 09:12:18;;;;;;;22.07;13.13;;;9.30;99.90;;;;;;5057272;28;20466;-61
2021/11/20 09:14:52;;;;;;;23.13;12.70;;;9.30;99.90;;;;;;5054242;28;20958;-61
2021/11/20 09:17:19;;;;;;;19.63;13.07;;;9.40;99.90;;;;;;5054004;28;20437;-62
2021/11/20 09:19:47;;;;;;;20.20;14.10;;;9.70;99.90;;;;;;5054669;28;20441;-60
2021/11/20 09:22:14;;;;;;;21.83;14.27;;;9.60;99.90;;;;;;5055253;28;20446;-60
2021/11/20 09:24:42;;;;;;;20.37;12.70;;;9.60;99.90;;;;;;5055501;28;20518;-61
2021/11/20 09:27:09;;;;;;;20.97;14.77;;;9.50;99.90;;;;;;5055622;28;20483;-60
2021/11/20 09:29:36;;;;;;;19.70;12.93;;;9.50;99.90;;;;;;5057273;28;20466;-61
2021/11/20 09:32:01;;;;;;;20.40;14.20;;;9.50;99.90;;;;;;5056321;28;20468;-61
2021/11/20 09:34:27;;;;;;;21.23;14.67;;;9.30;99.90;;;;;;5055005;28;20425;-61
2021/11/20 09:36:56;;;;;;;17.70;13.57;;;9.50;99.90;;;;;;5052503;28;20426;-62
2021/11/20 09:39:24;;;;;;;20.13;14.37;;;9.60;99.90;;;;;;5056744;28;20558;-62
2021/11/20 09:42:00;;;;;;;19.33;13.80;;;9.60;99.90;;;;;;5054989;28;20472;-61
2021/11/20 09:44:29;;;;;;;21.73;15.10;;;9.40;99.90;;;;;;5053520;28;22226;-62
2021/11/20 09:47:06;;;;;;;18.27;12.97;;;9.30;99.90;;;;;;5056327;28;20430;-62
2021/11/20 09:49:36;;;;;;;20.37;14.73;;;9.20;99.90;;;;;;5053767;28;20430;-61
2021/11/20 09:52:04;;;;;;;19.83;13.70;;;9.20;99.90;;;;;;5052150;28;20533;-62
2021/11/20 09:54:37;;;;;;;25.63;13.70;;;9.30;99.90;;;;;;5036843;28;20438;-61
2021/11/20 09:57:19;;;;;;;19.70;13.80;;;9.00;99.90;;;;;;5051579;28;20476;-61
2021/11/20 10:00:15;;;;;;;20.43;13.70;;;9.00;99.90;;;;;;5056871;28;20429;-62
2021/11/20 10:03:00;;;;;;;23.50;14.30;;;8.90;99.90;;;;;;5052966;28;20445;-61
2021/11/20 10:05:34;;;;;;;17.63;13.10;;;8.90;99.90;;;;;;5051586;28;20457;-62
2021/11/20 10:08:03;;;;;;;19.73;13.87;;;8.90;99.90;;;;;;5054661;28;20442;-62
2021/11/20 10:10:58;;;;;;;20.53;13.63;;;8.80;99.90;;;;;;5055488;28;20421;-61
2021/11/20 10:13:30;;;;;;;21.27;12.53;;;8.70;99.90;;;;;;5053999;28;20434;-62
2021/11/20 10:16:01;;;;;;;24.70;14.50;;;8.70;99.90;;;;;;5052638;28;20625;-61
2021/11/20 10:18:33;;;;;;;17.73;12.53;;;8.70;99.90;;;;;;5055557;28;20429;-61
2021/11/20 10:21:15;;;;;;;18.90;12.40;;;8.70;99.90;;;;;;5054595;28;20582;-61
2021/11/20 10:24:15;;;;;;;16.37;12.30;;;9.00;99.90;;;;;;5055156;28;20444;-61
2021/11/20 10:27:12;;;;;;;16.73;11.20;;;9.10;99.90;;;;;;5055327;28;20473;-62
2021/11/20 10:30:16;;;;;;;15.70;11.20;;;9.50;99.90;;;;;;5053806;28;20441;-60
2021/11/20 10:32:50;;;;;;;15.40;11.83;;;9.50;99.90;;;;;;5054356;28;20977;-61
2021/11/20 10:35:18;;;;;;;15.43;10.60;;;9.60;99.90;;;;;;5056538;28;20464;-60
2021/11/20 10:38:06;;;;;;;16.20;10.17;;;9.70;99.90;;;;;;5055872;28;20933;-61
2021/11/20 10:40:36;;;;;;;13.97;9.70;;;9.80;99.90;;;;;;5056020;28;20483;-62
2021/11/20 10:43:18;;;;;;;13.40;10.10;;;10.10;99.90;;;;;;5054650;28;20520;-61
2021/11/20 10:46:05;;;;;;;19.30;10.80;;;10.20;99.90;;;;;;5053531;28;20468;-61
2021/11/20 10:48:44;;;;;;;17.63;11.17;;;10.10;99.90;;;;;;5053693;28;20824;-61
2021/11/20 10:51:22;;;;;;;15.80;10.73;;;9.90;99.90;;;;;;5048349;28;20442;-61
2021/11/20 10:54:10;;;;;;;25.37;15.00;;;10.10;99.90;;;;;;5053719;28;20539;-61
2021/11/20 10:57:02;;;;;;;16.70;10.80;;;10.20;99.90;;;;;;5052624;28;20430;-62
2021/11/20 10:59:54;;;;;;;17.33;11.57;;;9.90;99.90;;;;;;5054392;28;20458;-62
2021/11/20 11:02:32;;;;;;;12.40;9.93;;;9.90;99.90;;;;;;5024167;28;20466;-62
2021/11/20 11:05:24;;;;;;;13.67;10.40;;;10.10;99.90;;;;;;5058081;28;20497;-62
2021/11/20 11:07:55;;;;;;;15.67;10.00;;;10.30;99.90;;;;;;5057527;28;20434;-61
2021/11/20 11:10:34;;;;;;;13.93;11.20;;;10.10;99.90;;;;;;5060416;28;20437;-62
2021/11/20 11:13:10;;;;;;;13.17;10.03;;;9.90;99.90;;;;;;5056043;28;20927;-62
2021/11/20 11:15:57;;;;;;;13.90;10.77;;;10.30;99.90;;;;;;5059611;28;20434;-61
2021/11/20 11:18:34;;;;;;;11.90;9.80;;;10.00;99.90;;;;;;5057888;28;20826;-61
2021/11/20 11:21:35;;;;;;;12.93;10.50;;;10.00;99.90;;;;;;5056656;28;20537;-61
2021/11/20 11:24:09;;;;;;;14.50;9.80;;;10.20;99.90;;;;;;5060104;28;20434;-61
2021/11/20 11:26:59;;;;;;;12.47;9.50;;;10.30;99.90;;;;;;5054443;28;20460;-62
2021/11/20 11:29:46;;;;;;;15.73;11.10;;;10.20;99.90;;;;;;5028662;28;20426;-62
2021/11/20 11:32:12;;;;;;;16.60;9.93;;;10.20;99.90;;;;;;5058190;28;20542;-62
2021/11/20 11:34:50;;;;;;;17.57;11.07;;;10.20;99.90;;;;;;5054373;28;20520;-62
2021/11/20 11:37:43;;;;;;;15.93;11.37;;;10.20;99.90;;;;;;5059275;28;20425;-62
2021/11/20 11:40:16;;;;;;;13.67;11.57;;;10.40;99.90;;;;;;5057271;28;20433;-62
2021/11/20 11:42:55;;;;;;;14.93;10.70;;;10.40;99.90;;;;;;5055755;28;21981;-62
2021/11/20 11:45:47;;;;;;;16.40;11.33;;;10.30;99.90;;;;;;5058961;28;20552;-61
2021/11/20 11:49:01;;;;;;;14.07;11.47;;;10.10;99.90;;;;;;5058016;28;20475;-60
2021/11/20 11:51:55;;;;;;;19.37;12.30;;;10.20;99.90;;;;;;5056036;28;20453;-61
2021/11/20 11:54:37;;;;;;;14.20;10.67;;;10.20;99.90;;;;;;5057454;28;20533;-61
2021/11/20 11:57:19;;;;;;;16.17;10.63;;;10.20;99.90;;;;;;5057449;28;20431;-60
2021/11/20 12:00:01;;;;;;;17.83;11.50;;;10.20;99.90;;;;;;5057305;28;20434;-61
2021/11/20 12:02:36;;;;;;;14.27;10.97;;;9.90;99.90;;;;;;5055484;28;20532;-61
2021/11/20 12:05:29;;;;;;;17.47;11.83;;;9.90;99.90;;;;;;5056592;28;20461;-62
2021/11/20 12:07:59;;;;;;;14.87;10.90;;;10.10;99.90;;;;;;5059599;28;20444;-61
2021/11/20 12:10:25;;;;;;;13.77;10.70;;;10.10;99.90;;;;;;5055673;28;20429;-61
2021/11/20 12:13:03;;;;;;;17.73;12.40;;;9.90;99.90;;;;;;5056639;28;20454;-61
2021/11/20 12:15:47;;;;;;;14.23;11.43;;;10.00;99.90;;;;;;5057559;28;20188;-62
2021/11/20 12:18:33;;;;;;;14.63;11.40;;;9.90;99.90;;;;;;5059524;28;20533;-62
2021/11/20 12:21:16;;;;;;;14.20;10.53;;;10.00;99.90;;;;;;5056581;28;20583;-62
2021/11/20 12:23:54;;;;;;;13.43;10.87;;;10.10;99.90;;;;;;5054319;28;20430;-62
2021/11/20 12:26:35;;;;;;;13.13;10.07;;;10.20;99.90;;;;;;5054967;28;20477;-62
2021/11/20 12:29:19;;;;;;;16.90;11.07;;;10.30;99.90;;;;;;5058745;28;20434;-61
2021/11/20 12:32:11;;;;;;;12.50;9.70;;;10.30;99.90;;;;;;5055118;28;20468;-60
2021/11/20 12:34:46;;;;;;;15.83;11.00;;;10.20;99.90;;;;;;5055778;28;20825;-61
2021/11/20 12:37:11;;;;;;;14.23;10.43;;;10.20;99.90;;;;;;5058416;28;20425;-61
2021/11/20 12:39:55;;;;;;;13.70;9.93;;;10.10;99.90;;;;;;5056350;28;20457;-61
2021/11/20 12:42:33;;;;;;;14.70;11.90;;;10.00;99.90;;;;;;5056004;28;20222;-61
2021/11/20 12:45:18;;;;;;;13.07;10.07;;;10.30;99.90;;;;;;5055744;28;20498;-62
2021/11/20 12:47:58;;;;;;;14.33;10.17;;;10.50;99.90;;;;;;5055615;28;20430;-62
2021/11/20 12:50:36;;;;;;;14.97;10.80;;;10.40;99.90;;;;;;5056267;28;20563;-62
2021/11/20 12:53:19;;;;;;;12.60;10.60;;;10.40;99.90;;;;;;5055001;28;20819;-62
2021/11/20 12:56:08;;;;;;;13.37;10.30;;;10.50;99.90;;;;;;5054876;28;20434;-62
2021/11/20 12:58:39;;;;;;;14.20;9.67;;;10.70;99.90;;;;;;5054874;28;20438;-62
2021/11/20 13:01:08;;;;;;;13.37;9.67;;;10.50;99.90;;;;;;5057474;28;20424;-61